Flores, Guatemala
Current Conditions -  °F | °C
As of 7:00 AM on Friday 24 Oct 2014 (Local Time) from MGMM Reporting Station
Light Rain Light Rain  
Wind Chill: 75°   Ceiling: 1000
Heat Index: 75°   Visibility: 6mi
Dew Point: 75°   Wind: 5mph
Humidity: 100%   Direction: 270°W
Pressure: 29.91"   Gusts: NA
Location:  16.93°N, 89.89°W
Report Text: MGMM 241300Z 27004KT 9999 -RA FEW006 BKN010 24/24 Q1013 A2991
Loading
Personal Weather Stations






























Interactive Weather Map
Tropical Storm Tracking
New forecast layout! Learn more

10-Day Weather Forecast

Advertisements
Track Severe Weather on mobile